Time;durP1;ratioP1;P1;durP2;ratioP2;P2;SDS_P1;SDS_P2;PMS_P1;PMS_P2;Temp;Humidity;BMP_temperature;BMP_pressure;BME280_temperature;BME280_humidity;BME280_pressure;Samples;Min_cycle;Max_cycle;Signal;HPM_P1;HPM_P2
2024/02/06 00:00:09;;;;;;;40.72;14.07;;;;;;;;;;5078453;28;20360;-57
2024/02/06 00:02:36;;;;;;;41.97;13.23;;;;;;;;;;5083175;28;20031;-44
2024/02/06 00:05:03;;;;;;;21.58;9.98;;;;;;;;;;5083354;28;20035;-56
2024/02/06 00:07:29;;;;;;;19.45;10.25;;;;;;;;;;5079403;28;20340;-48
2024/02/06 00:09:56;;;;;;;19.52;10.73;;;;;;;;;;5081147;28;20024;-47
2024/02/06 00:12:22;;;;;;;89.40;20.33;;;;;;;;;;5077498;28;20331;-61
2024/02/06 00:14:49;;;;;;;47.70;13.48;;;;;;;;;;5078543;28;20055;-53
2024/02/06 00:17:15;;;;;;;29.58;12.15;;;;;;;;;;5076003;28;20039;-55
2024/02/06 00:19:42;;;;;;;28.77;11.27;;;;;;;;;;5078876;28;20021;-50
2024/02/06 00:22:09;;;;;;;23.58;11.80;;;;;;;;;;5079231;28;20048;-44
2024/02/06 00:24:35;;;;;;;15.63;8.60;;;;;;;;;;5083014;28;20059;-49
2024/02/06 00:27:02;;;;;;;13.68;7.30;;;;;;;;;;5083124;28;20017;-51
2024/02/06 00:29:29;;;;;;;15.57;8.43;;;;;;;;;;5081118;28;20020;-50
2024/02/06 00:31:55;;;;;;;22.48;10.75;;;;;;;;;;5078384;28;20312;-51
2024/02/06 00:34:22;;;;;;;26.73;11.95;;;;;;;;;;5077337;28;20212;-60
2024/02/06 00:36:49;;;;;;;21.25;10.70;;;;;;;;;;5079239;28;20031;-54
2024/02/06 00:39:16;;;;;;;17.25;10.45;;;;;;;;;;5083060;28;20084;-49
2024/02/06 00:41:43;;;;;;;20.80;11.70;;;;;;;;;;5078340;28;20082;-62
2024/02/06 00:44:09;;;;;;;14.10;9.77;;;;;;;;;;5077240;28;20289;-47
2024/02/06 00:46:36;;;;;;;15.05;9.30;;;;;;;;;;5079727;28;20108;-48
2024/02/06 00:49:03;;;;;;;14.93;9.77;;;;;;;;;;5079646;28;20050;-50
2024/02/06 00:51:29;;;;;;;17.67;10.32;;;;;;;;;;5081704;28;20036;-46
2024/02/06 00:53:56;;;;;;;13.63;8.70;;;;;;;;;;5079916;28;20017;-54
2024/02/06 00:56:22;;;;;;;16.60;9.50;;;;;;;;;;5083412;28;20335;-51
2024/02/06 00:58:49;;;;;;;13.50;8.65;;;;;;;;;;5086221;28;20221;-57
2024/02/06 01:01:15;;;;;;;14.27;8.60;;;;;;;;;;5085355;28;20308;-54
2024/02/06 01:03:42;;;;;;;14.98;8.05;;;;;;;;;;5078027;28;20024;-50
2024/02/06 01:06:10;;;;;;;12.25;7.82;;;;;;;;;;5078495;28;20024;-56
2024/02/06 01:08:37;;;;;;;13.70;7.85;;;;;;;;;;5078190;28;20039;-53
2024/02/06 01:11:03;;;;;;;24.35;9.05;;;;;;;;;;5083447;28;20017;-51
2024/02/06 01:13:30;;;;;;;15.05;6.32;;;;;;;;;;5083758;28;20020;-46
2024/02/06 01:15:56;;;;;;;9.38;5.38;;;;;;;;;;5080417;28;20052;-50
2024/02/06 01:18:23;;;;;;;12.75;5.45;;;;;;;;;;5086423;28;20028;-52
2024/02/06 01:20:49;;;;;;;22.73;6.70;;;;;;;;;;5086686;28;20056;-52
2024/02/06 01:23:16;;;;;;;28.98;7.63;;;;;;;;;;5085495;28;20028;-52
2024/02/06 01:25:43;;;;;;;18.85;6.28;;;;;;;;;;5086428;28;20225;-56
2024/02/06 01:28:12;;;;;;;10.00;4.68;;;;;;;;;;5085911;28;20083;-53
2024/02/06 01:30:38;;;;;;;8.30;4.05;;;;;;;;;;5086010;28;20016;-56
2024/02/06 01:33:05;;;;;;;5.97;3.70;;;;;;;;;;5084985;28;20024;-51
2024/02/06 01:35:32;;;;;;;8.82;4.15;;;;;;;;;;5085974;28;20312;-57
2024/02/06 01:37:58;;;;;;;30.15;6.30;;;;;;;;;;5083362;28;20040;-63
2024/02/06 01:40:25;;;;;;;42.03;7.45;;;;;;;;;;5080677;28;20024;-64
2024/02/06 01:42:51;;;;;;;29.65;7.03;;;;;;;;;;5084546;28;20027;-56
2024/02/06 01:45:18;;;;;;;36.53;7.72;;;;;;;;;;5085556;28;20324;-63
2024/02/06 01:47:45;;;;;;;25.25;6.47;;;;;;;;;;5085520;28;20259;-62
2024/02/06 01:50:13;;;;;;;9.85;4.13;;;;;;;;;;5085575;28;20023;-52
2024/02/06 01:52:39;;;;;;;13.40;4.65;;;;;;;;;;5085186;28;20294;-54
2024/02/06 01:55:08;;;;;;;13.40;5.40;;;;;;;;;;5085645;28;20081;-52
2024/02/06 01:57:36;;;;;;;8.18;5.43;;;;;;;;;;5064927;28;20020;-60
2024/02/06 02:00:04;;;;;;;8.90;5.20;;;;;;;;;;5073651;28;20029;-60
2024/02/06 02:05:06;;;;;;;9.48;5.25;;;;;;;;;;5020646;28;20042;-53
2024/02/06 02:07:33;;;;;;;14.05;5.40;;;;;;;;;;5024507;28;20018;-54
2024/02/06 02:10:00;;;;;;;13.77;5.10;;;;;;;;;;5023090;28;20041;-49
2024/02/06 02:12:27;;;;;;;12.60;5.05;;;;;;;;;;5019970;28;20298;-51
2024/02/06 02:14:53;;;;;;;14.95;5.47;;;;;;;;;;5018908;28;20030;-51
2024/02/06 02:17:20;;;;;;;10.13;4.85;;;;;;;;;;5020910;28;20060;-51
2024/02/06 02:19:46;;;;;;;9.18;5.70;;;;;;;;;;5024962;28;20045;-51
2024/02/06 02:22:13;;;;;;;22.60;6.40;;;;;;;;;;5024685;28;20034;-47
2024/02/06 02:24:40;;;;;;;18.38;5.97;;;;;;;;;;5025206;28;20029;-47
2024/02/06 02:27:06;;;;;;;11.73;5.43;;;;;;;;;;5024994;28;20026;-50
2024/02/06 02:29:33;;;;;;;9.95;5.30;;;;;;;;;;5025354;28;20022;-54
2024/02/06 02:32:00;;;;;;;13.07;4.85;;;;;;;;;;5025113;28;20081;-46
2024/02/06 02:34:26;;;;;;;22.17;6.07;;;;;;;;;;5025063;28;20030;-45
2024/02/06 02:36:53;;;;;;;33.90;6.43;;;;;;;;;;5024276;28;20026;-53
2024/02/06 02:39:20;;;;;;;23.90;6.60;;;;;;;;;;5025240;28;20033;-48
2024/02/06 02:41:46;;;;;;;26.27;5.85;;;;;;;;;;5024818;28;20395;-49
2024/02/06 02:44:13;;;;;;;15.10;4.70;;;;;;;;;;5024940;28;20261;-48
2024/02/06 02:46:39;;;;;;;12.82;3.67;;;;;;;;;;5024590;28;20026;-44
2024/02/06 02:49:06;;;;;;;11.85;3.80;;;;;;;;;;5025012;28;20313;-51
2024/02/06 02:51:35;;;;;;;9.90;4.07;;;;;;;;;;5024349;28;20053;-54
2024/02/06 02:54:01;;;;;;;8.05;3.67;;;;;;;;;;5024986;28;20021;-53
2024/02/06 02:56:28;;;;;;;8.90;3.60;;;;;;;;;;5024655;28;20085;-54
2024/02/06 02:58:54;;;;;;;9.40;4.15;;;;;;;;;;5023310;28;20032;-52
2024/02/06 03:01:21;;;;;;;12.27;3.92;;;;;;;;;;5022919;28;20045;-55
2024/02/06 03:03:48;;;;;;;9.27;3.78;;;;;;;;;;5021544;28;20034;-54
2024/02/06 03:06:21;;;;;;;7.65;3.80;;;;;;;;;;5021719;28;20072;-51
2024/02/06 03:08:47;;;;;;;10.75;4.13;;;;;;;;;;5020665;28;20030;-53
2024/02/06 03:11:14;;;;;;;7.72;3.45;;;;;;;;;;5022321;28;20018;-54
2024/02/06 03:13:41;;;;;;;12.98;4.63;;;;;;;;;;5023997;28;20021;-55
2024/02/06 03:16:08;;;;;;;18.48;5.18;;;;;;;;;;5023992;28;20317;-54
2024/02/06 03:18:35;;;;;;;13.50;4.30;;;;;;;;;;5024430;28;20257;-55
2024/02/06 03:21:01;;;;;;;16.73;4.35;;;;;;;;;;5023887;28;20061;-56
2024/02/06 03:23:28;;;;;;;20.65;4.78;;;;;;;;;;5015751;28;20018;-51
2024/02/06 03:25:54;;;;;;;11.75;4.50;;;;;;;;;;5021827;28;20028;-54
2024/02/06 03:28:21;;;;;;;20.48;5.65;;;;;;;;;;5023759;28;20022;-53
2024/02/06 03:30:47;;;;;;;25.05;5.53;;;;;;;;;;5023860;28;20325;-53
2024/02/06 03:33:14;;;;;;;20.55;4.68;;;;;;;;;;5024023;28;20079;-54
2024/02/06 03:35:40;;;;;;;12.85;4.65;;;;;;;;;;5023753;28;20021;-52
2024/02/06 03:38:07;;;;;;;12.73;3.63;;;;;;;;;;5023070;28;20040;-53
2024/02/06 03:40:34;;;;;;;11.93;3.45;;;;;;;;;;5023736;28;20091;-54
2024/02/06 03:43:00;;;;;;;13.75;3.40;;;;;;;;;;5023948;28;20376;-53
2024/02/06 03:45:28;;;;;;;13.40;3.75;;;;;;;;;;5023774;28;20034;-52
2024/02/06 03:47:54;;;;;;;10.43;3.70;;;;;;;;;;5023789;28;20030;-53
2024/02/06 03:50:21;;;;;;;17.33;4.53;;;;;;;;;;5024055;28;20026;-53
2024/02/06 03:52:48;;;;;;;23.95;5.28;;;;;;;;;;5006124;28;20097;-49
2024/02/06 03:55:14;;;;;;;33.70;5.80;;;;;;;;;;5023745;28;20029;-52
2024/02/06 03:57:41;;;;;;;23.98;5.28;;;;;;;;;;5023660;28;20026;-61
2024/02/06 04:00:08;;;;;;;26.80;5.30;;;;;;;;;;5023577;28;20021;-52
2024/02/06 04:02:35;;;;;;;26.00;5.15;;;;;;;;;;5023283;28;20032;-53
2024/02/06 04:05:03;;;;;;;29.60;5.50;;;;;;;;;;5023635;28;20058;-51
2024/02/06 04:07:29;;;;;;;21.02;4.72;;;;;;;;;;5023874;28;20072;-56
2024/02/06 04:09:56;;;;;;;20.35;4.25;;;;;;;;;;5023912;28;20217;-55
2024/02/06 04:12:22;;;;;;;22.52;3.85;;;;;;;;;;5023931;28;20077;-53
2024/02/06 04:14:50;;;;;;;8.15;2.30;;;;;;;;;;5023832;28;20121;-53
2024/02/06 04:17:16;;;;;;;10.70;2.45;;;;;;;;;;5025390;28;20068;-56
2024/02/06 04:19:43;;;;;;;13.82;3.40;;;;;;;;;;5027590;28;20250;-54
2024/02/06 04:22:10;;;;;;;12.68;3.03;;;;;;;;;;5027832;28;20084;-55
2024/02/06 04:24:37;;;;;;;18.20;3.10;;;;;;;;;;5027159;28;20139;-55
2024/02/06 04:27:03;;;;;;;21.67;3.58;;;;;;;;;;5026083;28;20030;-56
2024/02/06 04:29:30;;;;;;;18.98;3.40;;;;;;;;;;5027981;28;20029;-54
2024/02/06 04:31:56;;;;;;;15.90;3.67;;;;;;;;;;5027567;28;20125;-54
2024/02/06 04:34:24;;;;;;;22.65;4.20;;;;;;;;;;5027768;28;20021;-62
2024/02/06 04:36:51;;;;;;;17.98;3.40;;;;;;;;;;5027500;28;20053;-53
2024/02/06 04:39:18;;;;;;;22.73;3.80;;;;;;;;;;5027001;28;20053;-54
2024/02/06 04:41:44;;;;;;;18.80;3.22;;;;;;;;;;5027208;28;20349;-52
2024/02/06 04:44:11;;;;;;;12.40;3.08;;;;;;;;;;5027611;28;20029;-52
2024/02/06 04:46:38;;;;;;;13.55;2.38;;;;;;;;;;5027170;28;20313;-53
2024/02/06 04:49:04;;;;;;;10.80;1.83;;;;;;;;;;5027322;28;20345;-54
2024/02/06 04:51:33;;;;;;;8.95;2.25;;;;;;;;;;5027143;28;20260;-53
2024/02/06 04:53:59;;;;;;;12.73;2.28;;;;;;;;;;5026566;28;20057;-58
2024/02/06 04:56:26;;;;;;;12.35;3.05;;;;;;;;;;5026866;28;20022;-56
2024/02/06 04:58:52;;;;;;;14.52;2.88;;;;;;;;;;5027488;28;20040;-59
2024/02/06 05:01:20;;;;;;;28.00;3.83;;;;;;;;;;5027005;28;20033;-54
2024/02/06 05:03:47;;;;;;;25.20;3.83;;;;;;;;;;5026535;28;20086;-53
2024/02/06 05:06:14;;;;;;;12.75;2.92;;;;;;;;;;5026922;28;20068;-57
2024/02/06 05:08:40;;;;;;;15.80;2.80;;;;;;;;;;5027009;28;20034;-54
2024/02/06 05:11:07;;;;;;;11.57;2.13;;;;;;;;;;5026675;28;20317;-55
2024/02/06 05:13:34;;;;;;;8.63;1.52;;;;;;;;;;5026949;28;20053;-54
2024/02/06 05:16:01;;;;;;;9.38;1.45;;;;;;;;;;5026728;28;20221;-53
2024/02/06 05:18:27;;;;;;;4.43;1.40;;;;;;;;;;5026601;28;20033;-52
2024/02/06 05:20:56;;;;;;;2.75;0.90;;;;;;;;;;5026664;28;20129;-55
2024/02/06 05:23:23;;;;;;;2.75;1.00;;;;;;;;;;5026791;28;20026;-57
2024/02/06 05:25:50;;;;;;;3.20;0.80;;;;;;;;;;5026454;28;20030;-55
2024/02/06 05:28:16;;;;;;;2.67;1.08;;;;;;;;;;5026251;28;20030;-58
2024/02/06 05:30:43;;;;;;;2.65;1.02;;;;;;;;;;5025184;28;20022;-53
2024/02/06 05:33:10;;;;;;;3.25;1.02;;;;;;;;;;5026459;28;20018;-53
2024/02/06 05:35:37;;;;;;;3.65;1.00;;;;;;;;;;5026153;28;20026;-54
2024/02/06 05:38:04;;;;;;;2.10;1.00;;;;;;;;;;5026439;28;20033;-54
2024/02/06 05:40:30;;;;;;;2.05;1.00;;;;;;;;;;5026121;28;20025;-55
2024/02/06 05:42:57;;;;;;;2.75;1.00;;;;;;;;;;5026038;28;20071;-58
2024/02/06 05:45:24;;;;;;;2.63;0.93;;;;;;;;;;5026188;28;20037;-50
2024/02/06 05:47:50;;;;;;;2.25;0.85;;;;;;;;;;5026070;28;20026;-58
2024/02/06 05:50:17;;;;;;;2.13;0.63;;;;;;;;;;5025848;28;20064;-54
2024/02/06 05:52:44;;;;;;;2.33;0.90;;;;;;;;;;5026052;28;20323;-52
2024/02/06 05:55:10;;;;;;;2.83;1.15;;;;;;;;;;5026033;28;20225;-58
2024/02/06 05:57:37;;;;;;;1.65;0.70;;;;;;;;;;5025628;28;20193;-55
2024/02/06 06:00:06;;;;;;;1.42;0.70;;;;;;;;;;5025776;28;20026;-53
2024/02/06 06:02:33;;;;;;;1.70;0.63;;;;;;;;;;5025070;28;20085;-55
2024/02/06 06:05:00;;;;;;;1.80;0.80;;;;;;;;;;5025475;28;20113;-55
2024/02/06 06:07:27;;;;;;;1.98;0.63;;;;;;;;;;5025626;28;20022;-56
2024/02/06 06:09:53;;;;;;;1.50;0.77;;;;;;;;;;5025586;28;20022;-57
2024/02/06 06:12:20;;;;;;;1.40;0.70;;;;;;;;;;5025362;28;20041;-54
2024/02/06 06:14:47;;;;;;;1.63;1.00;;;;;;;;;;5025595;28;20029;-59
2024/02/06 06:17:13;;;;;;;4.03;0.70;;;;;;;;;;5025442;28;20197;-56
2024/02/06 06:19:40;;;;;;;1.95;0.70;;;;;;;;;;5025295;28;20026;-51
2024/02/06 06:22:07;;;;;;;2.05;0.82;;;;;;;;;;5025521;28;20026;-54
2024/02/06 06:24:34;;;;;;;1.10;0.60;;;;;;;;;;5025802;28;20041;-54
2024/02/06 06:27:01;;;;;;;1.92;0.80;;;;;;;;;;5025343;28;20030;-55
2024/02/06 06:29:27;;;;;;;2.63;0.63;;;;;;;;;;5025785;28;20319;-52
2024/02/06 06:31:54;;;;;;;1.90;0.77;;;;;;;;;;5025385;28;20025;-53
2024/02/06 06:34:20;;;;;;;0.70;0.50;;;;;;;;;;5025555;28;20071;-53
2024/02/06 06:36:47;;;;;;;0.77;0.50;;;;;;;;;;5025239;28;20285;-53
2024/02/06 06:39:16;;;;;;;2.25;0.50;;;;;;;;;;5024790;28;20026;-56
2024/02/06 06:41:45;;;;;;;0.95;0.43;;;;;;;;;;5024865;28;20085;-54
2024/02/06 06:44:12;;;;;;;1.52;0.70;;;;;;;;;;5024904;28;20030;-53
2024/02/06 06:46:39;;;;;;;0.73;0.40;;;;;;;;;;5025013;28;20343;-53
2024/02/06 06:49:05;;;;;;;0.80;0.55;;;;;;;;;;5025146;28;20080;-54
2024/02/06 06:51:32;;;;;;;1.77;0.47;;;;;;;;;;5025097;28;20041;-55
2024/02/06 06:53:58;;;;;;;2.60;0.60;;;;;;;;;;5025282;28;20091;-59
2024/02/06 06:56:25;;;;;;;1.20;0.43;;;;;;;;;;5024705;28;20353;-55
2024/02/06 06:58:52;;;;;;;0.75;0.40;;;;;;;;;;5025181;28;20034;-54
2024/02/06 07:01:19;;;;;;;1.95;0.50;;;;;;;;;;5024797;28;20030;-55
2024/02/06 07:03:46;;;;;;;2.25;0.50;;;;;;;;;;5024300;28;20048;-52
2024/02/06 07:06:13;;;;;;;1.90;0.50;;;;;;;;;;5024537;28;20067;-53
2024/02/06 07:08:39;;;;;;;0.60;0.30;;;;;;;;;;5024720;28;20038;-55
2024/02/06 07:11:06;;;;;;;0.85;0.30;;;;;;;;;;5024381;28;20018;-55
2024/02/06 07:13:33;;;;;;;2.95;0.70;;;;;;;;;;5024697;28;20258;-52
2024/02/06 07:15:59;;;;;;;0.50;0.30;;;;;;;;;;5024408;28;20042;-55
2024/02/06 07:18:26;;;;;;;0.65;0.40;;;;;;;;;;5024508;28;20029;-57
2024/02/06 07:20:52;;;;;;;1.10;0.40;;;;;;;;;;5024429;28;20041;-58
2024/02/06 07:23:19;;;;;;;0.93;0.40;;;;;;;;;;5024516;28;20301;-55
2024/02/06 07:25:46;;;;;;;0.98;0.40;;;;;;;;;;5024250;28;20074;-55
2024/02/06 07:28:12;;;;;;;1.25;0.38;;;;;;;;;;5024117;28;20332;-55
2024/02/06 07:30:39;;;;;;;1.45;0.38;;;;;;;;;;5023613;28;20132;-56
2024/02/06 07:33:06;;;;;;;1.42;0.40;;;;;;;;;;5024323;28;20022;-53
2024/02/06 07:35:32;;;;;;;0.98;0.40;;;;;;;;;;5024047;28;20033;-55
2024/02/06 07:37:59;;;;;;;1.50;0.38;;;;;;;;;;5024371;28;20076;-54
2024/02/06 07:40:25;;;;;;;1.63;0.47;;;;;;;;;;5024219;28;20321;-55
2024/02/06 07:42:52;;;;;;;0.60;0.35;;;;;;;;;;5024134;28;20052;-58
2024/02/06 07:45:19;;;;;;;0.88;0.47;;;;;;;;;;5024068;28;20029;-59
2024/02/06 07:47:48;;;;;;;1.05;0.40;;;;;;;;;;5024450;28;20233;-55
2024/02/06 07:50:15;;;;;;;0.68;0.32;;;;;;;;;;5024255;28;20028;-52
2024/02/06 07:52:43;;;;;;;1.05;0.20;;;;;;;;;;5030595;28;20030;-53
2024/02/06 07:55:10;;;;;;;0.30;0.20;;;;;;;;;;5030563;28;20022;-52
2024/02/06 07:57:36;;;;;;;0.75;0.30;;;;;;;;;;5030463;28;20068;-53
2024/02/06 08:00:04;;;;;;;1.70;0.40;;;;;;;;;;5030680;28;20089;-59
2024/02/06 08:02:31;;;;;;;0.77;0.32;;;;;;;;;;5030359;28;20028;-53
2024/02/06 08:04:59;;;;;;;1.05;0.30;;;;;;;;;;5030200;28;20048;-56
2024/02/06 08:07:27;;;;;;;0.77;0.20;;;;;;;;;;5030312;28;20030;-57
2024/02/06 08:09:54;;;;;;;1.27;0.30;;;;;;;;;;5030566;28;20032;-52
2024/02/06 08:12:21;;;;;;;0.70;0.30;;;;;;;;;;5030258;28;20077;-55
2024/02/06 08:14:48;;;;;;;1.80;0.32;;;;;;;;;;5030344;28;20045;-57
2024/02/06 08:17:15;;;;;;;1.50;0.30;;;;;;;;;;5030256;28;20072;-53
2024/02/06 08:19:41;;;;;;;1.15;0.30;;;;;;;;;;5030204;28;20022;-54
2024/02/06 08:22:08;;;;;;;1.80;0.40;;;;;;;;;;5030420;28;20018;-55
2024/02/06 08:24:34;;;;;;;1.25;0.30;;;;;;;;;;5030839;28;20028;-53
2024/02/06 08:27:01;;;;;;;1.35;0.28;;;;;;;;;;5030129;28;20034;-54
2024/02/06 08:29:28;;;;;;;3.60;0.40;;;;;;;;;;5030757;28;20026;-59
2024/02/06 08:31:55;;;;;;;1.13;0.20;;;;;;;;;;5030229;28;20026;-53
2024/02/06 08:34:22;;;;;;;0.47;0.30;;;;;;;;;;5030580;28;20297;-52
2024/02/06 08:36:48;;;;;;;1.08;0.22;;;;;;;;;;5030133;28;20026;-51
2024/02/06 08:39:15;;;;;;;1.48;0.25;;;;;;;;;;5030674;28;20025;-55
2024/02/06 08:41:42;;;;;;;2.78;0.20;;;;;;;;;;5029990;28;20017;-57
2024/02/06 08:44:09;;;;;;;0.77;0.20;;;;;;;;;;5030604;28;20309;-53
2024/02/06 08:46:37;;;;;;;1.90;0.20;;;;;;;;;;5030023;28;20052;-53
2024/02/06 08:49:03;;;;;;;1.15;0.30;;;;;;;;;;5030226;28;20037;-57
2024/02/06 08:51:30;;;;;;;0.90;0.20;;;;;;;;;;5030179;28;20021;-56
2024/02/06 08:53:57;;;;;;;1.20;0.25;;;;;;;;;;5030313;28;20024;-54
2024/02/06 08:56:23;;;;;;;2.70;0.65;;;;;;;;;;5029857;28;20089;-56
2024/02/06 08:58:50;;;;;;;0.80;0.20;;;;;;;;;;5030028;28;20029;-54
2024/02/06 09:01:17;;;;;;;0.52;0.20;;;;;;;;;;5029943;28;20018;-53
2024/02/06 09:03:44;;;;;;;1.15;0.30;;;;;;;;;;5026125;28;20045;-55
2024/02/06 09:06:11;;;;;;;2.65;0.30;;;;;;;;;;5026965;28;20036;-53
2024/02/06 09:08:39;;;;;;;0.75;0.30;;;;;;;;;;5027033;28;20048;-55
2024/02/06 09:11:06;;;;;;;1.73;0.38;;;;;;;;;;5026581;28;20029;-53
2024/02/06 09:13:33;;;;;;;1.67;0.40;;;;;;;;;;5027046;28;20022;-54
2024/02/06 09:16:01;;;;;;;1.30;0.30;;;;;;;;;;5026754;28;20030;-54
2024/02/06 09:18:28;;;;;;;1.02;0.30;;;;;;;;;;5026677;28;20085;-53
2024/02/06 09:20:54;;;;;;;0.40;0.20;;;;;;;;;;5026558;28;20032;-53
2024/02/06 09:23:21;;;;;;;2.75;0.38;;;;;;;;;;5026730;28;20022;-57
2024/02/06 09:25:48;;;;;;;1.88;0.32;;;;;;;;;;5026385;28;20053;-56
2024/02/06 09:28:15;;;;;;;1.48;0.20;;;;;;;;;;5026773;28;20053;-54
2024/02/06 09:30:41;;;;;;;2.67;0.35;;;;;;;;;;5026497;28;20029;-53
2024/02/06 09:33:08;;;;;;;0.47;0.20;;;;;;;;;;5026422;28;20077;-54
2024/02/06 09:35:35;;;;;;;1.35;0.20;;;;;;;;;;5026447;28;20034;-58
2024/02/06 09:38:02;;;;;;;1.17;0.15;;;;;;;;;;5026630;28;20293;-55
2024/02/06 09:40:29;;;;;;;2.20;0.30;;;;;;;;;;5026182;28;20038;-55
2024/02/06 09:42:56;;;;;;;2.67;0.38;;;;;;;;;;5026074;28;20245;-51
2024/02/06 09:45:22;;;;;;;3.60;0.40;;;;;;;;;;5026218;28;20057;-53
2024/02/06 09:47:49;;;;;;;1.73;0.38;;;;;;;;;;5026128;28;20022;-54
2024/02/06 09:50:15;;;;;;;1.20;0.35;;;;;;;;;;5025955;28;20051;-52
2024/02/06 09:52:42;;;;;;;1.95;0.40;;;;;;;;;;5025978;28;20021;-52
2024/02/06 09:55:11;;;;;;;1.80;0.35;;;;;;;;;;5026011;28;20032;-54
2024/02/06 09:57:38;;;;;;;0.90;0.30;;;;;;;;;;5025777;28;20028;-52
2024/02/06 10:00:08;;;;;;;3.22;0.40;;;;;;;;;;5025955;28;20169;-51
2024/02/06 10:02:36;;;;;;;1.60;0.40;;;;;;;;;;5025764;28;20072;-51
2024/02/06 10:05:03;;;;;;;1.70;0.22;;;;;;;;;;5025710;28;20088;-51
2024/02/06 10:07:30;;;;;;;4.35;0.50;;;;;;;;;;5025682;28;20341;-49
2024/02/06 10:09:57;;;;;;;2.45;0.50;;;;;;;;;;5025612;28;20052;-51
2024/02/06 10:12:25;;;;;;;1.95;0.30;;;;;;;;;;5025529;28;20037;-61
2024/02/06 10:14:51;;;;;;;2.28;0.60;;;;;;;;;;5024516;28;20325;-52
2024/02/06 10:17:18;;;;;;;1.38;0.55;;;;;;;;;;5025448;28;20025;-54
2024/02/06 10:19:44;;;;;;;0.70;0.43;;;;;;;;;;5025452;28;20044;-54
2024/02/06 10:22:12;;;;;;;6.43;0.50;;;;;;;;;;5025390;28;20022;-51
2024/02/06 10:24:39;;;;;;;2.28;0.45;;;;;;;;;;5025282;28;20349;-52
2024/02/06 10:27:06;;;;;;;1.63;0.55;;;;;;;;;;5025121;28;20025;-53
2024/02/06 10:29:34;;;;;;;3.25;0.60;;;;;;;;;;5025764;28;20087;-52
2024/02/06 10:32:01;;;;;;;1.50;0.30;;;;;;;;;;5025215;28;20081;-50
2024/02/06 10:34:28;;;;;;;4.47;0.50;;;;;;;;;;5025484;28;20025;-52
2024/02/06 10:36:58;;;;;;;1.20;0.40;;;;;;;;;;5024722;28;20089;-50
2024/02/06 10:39:28;;;;;;;1.73;0.50;;;;;;;;;;5025755;28;20026;-54
2024/02/06 10:42:01;;;;;;;2.00;0.40;;;;;;;;;;5025012;28;20041;-53
2024/02/06 10:44:28;;;;;;;1.92;0.50;;;;;;;;;;5025508;28;20021;-53
2024/02/06 10:46:59;;;;;;;0.70;0.40;;;;;;;;;;5024701;28;20018;-55
2024/02/06 10:49:26;;;;;;;1.08;0.60;;;;;;;;;;5025365;28;20018;-54
2024/02/06 10:52:02;;;;;;;3.65;0.45;;;;;;;;;;5024948;28;20081;-52
2024/02/06 10:54:28;;;;;;;1.73;0.43;;;;;;;;;;5025164;28;20262;-52
2024/02/06 10:57:00;;;;;;;3.30;0.70;;;;;;;;;;5024940;28;20071;-51
2024/02/06 10:59:31;;;;;;;0.85;0.40;;;;;;;;;;5024557;28;20072;-49
2024/02/06 11:01:58;;;;;;;3.05;0.75;;;;;;;;;;5024831;28;20077;-56
2024/02/06 11:04:26;;;;;;;2.08;0.75;;;;;;;;;;5024576;28;20041;-57
2024/02/06 11:07:05;;;;;;;1.15;0.52;;;;;;;;;;5024400;28;20030;-52
2024/02/06 11:09:32;;;;;;;2.85;0.70;;;;;;;;;;5025068;28;20264;-56
2024/02/06 11:12:01;;;;;;;2.30;0.70;;;;;;;;;;5024595;28;20021;-53
2024/02/06 11:14:29;;;;;;;2.50;0.88;;;;;;;;;;5024831;28;20324;-56
2024/02/06 11:16:58;;;;;;;1.92;1.00;;;;;;;;;;5024339;28;20032;-52
2024/02/06 11:19:32;;;;;;;2.90;0.80;;;;;;;;;;5024864;28;20309;-58
2024/02/06 11:22:10;;;;;;;2.05;1.00;;;;;;;;;;5024342;28;20276;-55
2024/02/06 11:24:37;;;;;;;2.40;1.00;;;;;;;;;;5024836;28;20072;-55
2024/02/06 11:27:04;;;;;;;2.45;1.15;;;;;;;;;;5023170;28;20030;-52
2024/02/06 11:29:31;;;;;;;2.92;0.90;;;;;;;;;;5024117;28;20340;-58
2024/02/06 11:31:58;;;;;;;3.22;1.00;;;;;;;;;;5024308;28;20190;-58
2024/02/06 11:34:24;;;;;;;3.42;1.30;;;;;;;;;;5024571;28;20022;-56
2024/02/06 11:36:51;;;;;;;3.42;1.15;;;;;;;;;;5024299;28;20018;-55
2024/02/06 11:39:24;;;;;;;4.07;1.15;;;;;;;;;;5024560;28;20021;-53
2024/02/06 11:41:51;;;;;;;3.92;1.50;;;;;;;;;;5024012;28;20030;-58
2024/02/06 11:44:23;;;;;;;5.53;1.48;;;;;;;;;;5024578;28;20021;-48
2024/02/06 11:46:54;;;;;;;4.97;1.20;;;;;;;;;;5023825;28;20249;-48
2024/02/06 11:49:24;;;;;;;6.47;1.30;;;;;;;;;;5024453;28;20026;-49
2024/02/06 11:51:57;;;;;;;7.68;1.60;;;;;;;;;;5024295;28;20312;-50
2024/02/06 11:54:24;;;;;;;;;;;;;;;;;;5023538;28;20084;-51
2024/02/06 11:56:51;;;;;;;9.65;1.55;;;;;;;;;;5024204;28;19948;-54
2024/02/06 11:59:17;;;;;;;5.85;1.65;;;;;;;;;;5024447;28;20321;-50
2024/02/06 12:01:44;;;;;;;4.88;1.27;;;;;;;;;;5023989;28;20033;-48
2024/02/06 12:04:10;;;;;;;22.42;2.60;;;;;;;;;;5023818;28;20042;-51
2024/02/06 12:06:37;;;;;;;32.55;3.92;;;;;;;;;;5024193;28;20026;-53
2024/02/06 12:09:10;;;;;;;52.80;6.20;;;;;;;;;;5024085;28;20054;-50
2024/02/06 12:11:39;;;;;;;77.13;8.98;;;;;;;;;;5023924;28;20042;-50
2024/02/06 12:14:06;;;;;;;85.78;11.27;;;;;;;;;;5023654;28;20314;-53
2024/02/06 12:16:32;;;;;;;141.80;16.35;;;;;;;;;;5023787;28;20310;-51
2024/02/06 12:18:59;;;;;;;161.80;19.23;;;;;;;;;;5024346;28;20109;-48
2024/02/06 12:21:26;;;;;;;133.07;15.40;;;;;;;;;;5023831;28;20033;-40
2024/02/06 12:24:06;;;;;;;106.15;13.15;;;;;;;;;;5023934;28;20298;-53
2024/02/06 12:26:33;;;;;;;83.38;10.85;;;;;;;;;;5023750;28;20018;-51
2024/02/06 12:29:01;;;;;;;67.05;8.65;;;;;;;;;;5023860;28;20248;-50
2024/02/06 12:31:28;;;;;;;53.42;6.30;;;;;;;;;;5023613;28;20340;-50
2024/02/06 12:33:54;;;;;;;45.60;5.90;;;;;;;;;;5024053;28;20065;-49
2024/02/06 12:36:21;;;;;;;34.67;4.55;;;;;;;;;;5023713;28;20026;-52
2024/02/06 12:38:53;;;;;;;37.80;4.82;;;;;;;;;;5026332;28;20029;-50
2024/02/06 12:41:19;;;;;;;32.97;4.07;;;;;;;;;;5027244;28;20022;-52
2024/02/06 12:43:50;;;;;;;27.30;3.70;;;;;;;;;;5027338;28;20162;-51
2024/02/06 12:46:17;;;;;;;27.13;3.70;;;;;;;;;;5027091;28;20038;-41
2024/02/06 12:48:44;;;;;;;13.90;3.35;;;;;;;;;;5027272;28;20067;-42
2024/02/06 12:51:11;;;;;;;14.27;2.80;;;;;;;;;;5026923;28;20029;-45
2024/02/06 12:53:37;;;;;;;11.98;3.08;;;;;;;;;;5027213;28;20026;-44
2024/02/06 12:56:04;;;;;;;10.43;2.60;;;;;;;;;;5027078;28;20325;-42
2024/02/06 12:58:32;;;;;;;21.95;2.90;;;;;;;;;;5026807;28;20056;-43
2024/02/06 13:00:59;;;;;;;24.40;3.58;;;;;;;;;;5026852;28;20026;-43
2024/02/06 13:03:26;;;;;;;52.10;6.60;;;;;;;;;;5026880;28;20050;-42
2024/02/06 13:05:56;;;;;;;59.53;8.10;;;;;;;;;;5026627;28;20033;-44
2024/02/06 13:08:24;;;;;;;72.60;9.60;;;;;;;;;;5026822;28;20187;-43
2024/02/06 13:10:50;;;;;;;62.38;7.82;;;;;;;;;;5026601;28;20032;-46
2024/02/06 13:13:18;;;;;;;39.42;6.95;;;;;;;;;;5026726;28;20052;-41
2024/02/06 13:15:45;;;;;;;21.42;4.80;;;;;;;;;;5026671;28;20042;-43
2024/02/06 13:18:16;;;;;;;25.00;3.75;;;;;;;;;;5026753;28;20030;-42
2024/02/06 13:20:43;;;;;;;31.10;4.10;;;;;;;;;;5026419;28;20022;-43
2024/02/06 13:23:10;;;;;;;23.38;3.58;;;;;;;;;;5026801;28;20025;-43
2024/02/06 13:25:37;;;;;;;20.73;3.42;;;;;;;;;;5026521;28;20095;-45
2024/02/06 13:28:04;;;;;;;21.58;3.50;;;;;;;;;;5026363;28;20029;-43
2024/02/06 13:30:31;;;;;;;21.27;2.80;;;;;;;;;;5026364;28;20022;-45
2024/02/06 13:32:57;;;;;;;9.82;2.30;;;;;;;;;;5026532;28;20025;-45
2024/02/06 13:35:24;;;;;;;11.18;2.20;;;;;;;;;;5026309;28;20018;-47
2024/02/06 13:37:52;;;;;;;8.45;2.05;;;;;;;;;;5026264;28;20076;-46
2024/02/06 13:40:19;;;;;;;6.13;1.80;;;;;;;;;;5026085;28;20026;-44
2024/02/06 13:42:45;;;;;;;5.53;1.83;;;;;;;;;;5025888;28;20022;-46
2024/02/06 13:45:12;;;;;;;6.72;1.80;;;;;;;;;;5026211;28;20030;-49
2024/02/06 13:47:38;;;;;;;6.32;1.65;;;;;;;;;;5026044;28;20026;-43
2024/02/06 13:50:06;;;;;;;6.05;1.60;;;;;;;;;;5025822;28;20022;-46
2024/02/06 13:52:32;;;;;;;6.90;1.60;;;;;;;;;;5025950;28;20017;-43
2024/02/06 13:54:59;;;;;;;4.75;1.30;;;;;;;;;;5025865;28;20018;-44
2024/02/06 13:57:25;;;;;;;5.63;1.40;;;;;;;;;;5025756;28;20025;-39
2024/02/06 13:59:52;;;;;;;4.30;1.10;;;;;;;;;;5025746;28;20022;-41
2024/02/06 14:02:19;;;;;;;2.85;1.08;;;;;;;;;;5025765;28;20024;-43
2024/02/06 14:04:45;;;;;;;3.67;1.13;;;;;;;;;;5025405;28;20100;-45
2024/02/06 14:07:15;;;;;;;1.55;0.70;;;;;;;;;;5025207;28;20032;-49
2024/02/06 14:09:42;;;;;;;3.13;0.90;;;;;;;;;;5025228;28;20313;-45
2024/02/06 14:12:09;;;;;;;6.10;0.85;;;;;;;;;;5021340;28;20309;-42
2024/02/06 14:14:35;;;;;;;3.03;0.82;;;;;;;;;;5025744;28;20021;-43
2024/02/06 14:17:02;;;;;;;3.25;0.98;;;;;;;;;;5025388;28;20022;-52
2024/02/06 14:19:28;;;;;;;2.22;0.88;;;;;;;;;;5023119;28;20041;-52
2024/02/06 14:21:56;;;;;;;1.80;0.80;;;;;;;;;;5017889;28;20033;-48
2024/02/06 14:24:22;;;;;;;2.80;0.88;;;;;;;;;;5023376;28;20312;-50
2024/02/06 14:26:49;;;;;;;1.85;1.08;;;;;;;;;;5017429;28;20051;-49
2024/02/06 14:29:16;;;;;;;2.55;1.00;;;;;;;;;;5024583;28;20345;-50
2024/02/06 14:31:42;;;;;;;1.95;0.80;;;;;;;;;;5024202;28;20371;-52
2024/02/06 14:34:09;;;;;;;4.30;0.70;;;;;;;;;;5025221;28;20022;-42
2024/02/06 14:36:35;;;;;;;3.83;0.80;;;;;;;;;;5024670;28;20022;-49
2024/02/06 14:39:04;;;;;;;3.22;1.00;;;;;;;;;;5025215;28;20025;-47